ソウル/仁川 の空港の天気 - METARとTAF

仁川国際空港 ( RKSI / ICN ) - 韓国 仁川広域市 (ソウル特別市近郊)
飛行場実況気象(Metar)
観測時間08/11 16:00 KST (08/11 07:00 UTC)
風向・風速南西 5m/s
視程10km以上
天気現象
全天の8割程度の雲 雲底高度 550m
全天の8割程度の雲 雲底高度 910m
全天を覆う雲 雲底高度 2440m
気温26℃
湿度74%
気圧1009hPa
METARRKSI 110700Z 23010KT 190V250 9999 BKN018 BKN030 OVC080 26/21 Q1009 NOSIG
過去の天気等 Google飛行場航空写真 Wunderground天気予報

過去48時間のMETAR

飛行場予報(TAF)
発表時間: 8/11 14:00 KST (8/11 05:00 UTC)
予報対象時間: 11日15時 KST ~ 12日21時 KST
風向・風速西南西 5m/s
視程10km以上
少しの雲 雲底高度 460m
全天の4割程度の雲 雲底高度 1220m
全天の8割程度の雲 雲底高度 4570m
12日0時 KST ~ 12日1時 KST に徐々に
風向・風速南 3m/s
視程4000m
天気現象もや
12日2時 KST ~ 12日3時 KST に徐々に
視程2500m
全天の8割程度の雲 雲底高度 150m
全天の8割程度の雲 雲底高度 610m
12日8時 KST ~ 12日9時 KST に徐々に
視程4000m
12日11時 KST ~ 12日12時 KST に徐々に
風向・風速西南西 3m/s
視程6000m
天気現象運行に影響にある天気現象が終了
全天の4割程度の雲 雲底高度 910m
TAF RKSI 110500Z 1106/1212 24010KT 9999 FEW015 SCT040 BKN150 TN24/1120Z TX28/1206Z
BECMG 1115/1116 17005KT 4000 BR
BECMG 1117/1118 2500 BKN005 BKN020
BECMG 1123/1124 4000
BECMG 1202/1203 25006KT 6000 NSW SCT030